createdAt,value
2018-01-16T00:00:02.379Z,984.2
2018-01-16T00:10:17.069Z,984.1
2018-01-16T00:20:32.358Z,984.2
2018-01-16T00:30:47.464Z,984.1
2018-01-16T00:41:01.613Z,984.3
2018-01-16T00:51:16.844Z,984.5
2018-01-16T01:01:30.548Z,984.6
2018-01-16T01:11:46.133Z,984.9
2018-01-16T01:21:59.970Z,984.7
2018-01-16T01:32:13.671Z,984.8
2018-01-16T01:42:28.040Z,985
2018-01-16T01:52:42.727Z,984.8
2018-01-16T02:02:57.512Z,984.7
2018-01-16T02:13:11.723Z,984.7
2018-01-16T02:23:27.060Z,984.6
2018-01-16T02:33:42.736Z,984.3
2018-01-16T02:43:58.028Z,984.3
2018-01-16T02:54:12.391Z,984.1
2018-01-16T03:04:27.593Z,983.9
2018-01-16T03:14:42.004Z,984
2018-01-16T03:24:57.560Z,983.8
2018-01-16T03:35:11.780Z,983.6
2018-01-16T03:45:26.805Z,983.6
2018-01-16T03:55:41.076Z,983.5
2018-01-16T04:05:55.410Z,983.2
2018-01-16T04:16:09.274Z,983.1
2018-01-16T04:26:23.569Z,982.9
2018-01-16T04:36:37.673Z,983
2018-01-16T04:46:52.417Z,983
2018-01-16T04:57:06.996Z,982.8
2018-01-16T05:07:22.635Z,982.7
2018-01-16T05:17:37.344Z,982.7
2018-01-16T05:27:51.477Z,982.6
2018-01-16T05:38:06.006Z,982.6
2018-01-16T05:48:20.674Z,982.6
2018-01-16T05:58:35.927Z,982.5
2018-01-16T06:08:50.234Z,982.6
2018-01-16T06:19:03.937Z,982.6
2018-01-16T06:29:17.774Z,982.5
2018-01-16T06:39:32.081Z,982.7
2018-01-16T06:49:46.753Z,982.6
2018-01-16T07:00:01.515Z,982.8
2018-01-16T07:10:16.737Z,982.7
2018-01-16T07:20:32.000Z,982.6
2018-01-16T07:30:45.908Z,982.7
2018-01-16T07:41:00.477Z,982.7
2018-01-16T07:51:14.387Z,982.8
2018-01-16T08:01:28.100Z,982.8
2018-01-16T08:11:43.568Z,982.6
2018-01-16T08:21:58.929Z,982.9
2018-01-16T08:32:12.847Z,983.1
2018-01-16T08:42:28.327Z,983
2018-01-16T08:52:42.432Z,983
2018-01-16T09:02:57.065Z,982.9
2018-01-16T09:13:10.531Z,982.9
2018-01-16T09:23:24.724Z,982.9
2018-01-16T09:33:39.080Z,983.2
2018-01-16T09:43:53.801Z,983
2018-01-16T09:54:09.355Z,983.5
2018-01-16T10:04:24.211Z,983.7
2018-01-16T10:14:38.325Z,983.3
2018-01-16T10:24:52.384Z,983.5
2018-01-16T10:35:07.227Z,983.7
2018-01-16T10:45:21.289Z,983.8
2018-01-16T10:55:35.312Z,984.1
2018-01-16T11:05:49.025Z,984
2018-01-16T11:16:04.333Z,984.3
2018-01-16T11:26:18.263Z,984.3
2018-01-16T11:36:33.541Z,984.3
2018-01-16T11:46:48.973Z,984.4
2018-01-16T11:57:03.131Z,984.6
2018-01-16T12:07:18.502Z,984.6
2018-01-16T12:17:33.971Z,984.6
2018-01-16T12:27:48.398Z,984.7
2018-01-16T12:38:02.945Z,984.4
2018-01-16T12:48:17.892Z,984.5
2018-01-16T12:58:32.431Z,984.3
2018-01-16T13:08:46.006Z,984.3
2018-01-16T13:19:00.975Z,984.4
2018-01-16T13:29:16.610Z,984.3
2018-01-16T13:39:30.605Z,984.5
2018-01-16T13:49:45.501Z,984.9
2018-01-16T14:00:00.578Z,985.1
2018-01-16T14:10:15.288Z,985
2018-01-16T14:20:29.965Z,985
2018-01-16T14:30:44.599Z,985
2018-01-16T14:40:59.187Z,985.1
2018-01-16T14:51:14.096Z,985.2
2018-01-16T15:01:28.957Z,985.2
2018-01-16T15:11:44.429Z,985.2
2018-01-16T15:22:00.015Z,985.4
2018-01-16T15:32:15.514Z,985.8
2018-01-16T15:42:31.126Z,985.6
2018-01-16T15:52:44.953Z,985.7
2018-01-16T16:02:58.985Z,985.9
2018-01-16T16:13:12.763Z,986
2018-01-16T16:23:28.100Z,986
2018-01-16T16:33:42.101Z,985.9
2018-01-16T16:43:56.469Z,985.9
2018-01-16T16:54:10.550Z,985.8
2018-01-16T17:04:25.594Z,985.7
2018-01-16T17:14:41.074Z,985.6
2018-01-16T17:24:55.106Z,985.9
2018-01-16T17:35:10.122Z,985.8
2018-01-16T17:45:25.607Z,985.6
2018-01-16T17:55:39.643Z,985.8
2018-01-16T18:05:54.569Z,985.8
2018-01-16T18:16:08.817Z,985.8
2018-01-16T18:26:22.725Z,985.7
2018-01-16T18:36:37.326Z,985.7
2018-01-16T18:46:51.181Z,985.6
2018-01-16T18:57:06.055Z,985.5
2018-01-16T19:07:20.788Z,985.6
2018-01-16T19:17:35.318Z,985.6
2018-01-16T19:27:49.883Z,985.6
2018-01-16T19:38:05.490Z,985.7
2018-01-16T19:48:20.587Z,985.6
2018-01-16T19:58:35.598Z,985.6
2018-01-16T20:08:49.440Z,985.5
2018-01-16T20:19:03.641Z,985.5
2018-01-16T20:29:17.375Z,985.5
2018-01-16T20:39:31.193Z,985.5
2018-01-16T20:49:45.867Z,985.5
2018-01-16T21:00:00.729Z,985.6
2018-01-16T21:10:16.162Z,985.5
2018-01-16T21:20:31.266Z,985.3
2018-01-16T21:30:46.410Z,985.1
2018-01-16T21:41:01.714Z,985.3
2018-01-16T21:51:16.560Z,985.2
2018-01-16T22:01:30.691Z,985.2
2018-01-16T22:11:44.456Z,985.2
2018-01-16T22:21:59.621Z,985.2
2018-01-16T22:32:14.619Z,985.1
2018-01-16T22:42:29.646Z,985.2
2018-01-16T22:52:44.530Z,985.3
2018-01-16T23:02:59.943Z,985.3
2018-01-16T23:13:14.258Z,985
2018-01-16T23:23:29.562Z,984.8
2018-01-16T23:33:43.664Z,984.7
2018-01-16T23:43:57.714Z,984.5
2018-01-16T23:54:12.965Z,984.4
